sensor_id;sensor_type;location;lat;lon;timestamp;P1;durP1;ratioP1;P2;durP2;ratioP2
17171;SDS011;8701;50.150;8.756;2023-02-11T00:02:30;37.87;;;19.90;;
17171;SDS011;8701;50.150;8.756;2023-02-11T00:06:33;40.33;;;20.37;;
17171;SDS011;8701;50.150;8.756;2023-02-11T00:10:37;35.27;;;20.30;;
17171;SDS011;8701;50.150;8.756;2023-02-11T00:14:41;38.80;;;20.63;;
17171;SDS011;8701;50.150;8.756;2023-02-11T00:18:43;35.53;;;21.30;;
17171;SDS011;8701;50.150;8.756;2023-02-11T00:22:46;38.80;;;21.47;;
17171;SDS011;8701;50.150;8.756;2023-02-11T00:26:50;38.53;;;21.03;;
17171;SDS011;8701;50.150;8.756;2023-02-11T00:30:53;35.27;;;19.53;;
17171;SDS011;8701;50.150;8.756;2023-02-11T00:34:55;39.70;;;20.80;;
17171;SDS011;8701;50.150;8.756;2023-02-11T00:38:58;36.10;;;19.77;;
17171;SDS011;8701;50.150;8.756;2023-02-11T00:43:03;38.73;;;21.03;;
17171;SDS011;8701;50.150;8.756;2023-02-11T00:47:05;36.30;;;21.20;;
17171;SDS011;8701;50.150;8.756;2023-02-11T00:51:09;33.67;;;20.10;;
17171;SDS011;8701;50.150;8.756;2023-02-11T00:55:12;36.20;;;19.73;;
17171;SDS011;8701;50.150;8.756;2023-02-11T00:59:15;40.40;;;20.10;;
17171;SDS011;8701;50.150;8.756;2023-02-11T01:03:18;36.30;;;20.63;;
17171;SDS011;8701;50.150;8.756;2023-02-11T01:07:23;39.13;;;21.57;;
17171;SDS011;8701;50.150;8.756;2023-02-11T01:11:26;39.97;;;20.90;;
17171;SDS011;8701;50.150;8.756;2023-02-11T01:15:31;35.53;;;21.10;;
17171;SDS011;8701;50.150;8.756;2023-02-11T01:19:35;39.90;;;20.80;;
17171;SDS011;8701;50.150;8.756;2023-02-11T01:23:38;42.47;;;22.27;;
17171;SDS011;8701;50.150;8.756;2023-02-11T01:27:40;38.37;;;20.60;;
17171;SDS011;8701;50.150;8.756;2023-02-11T01:31:44;37.87;;;21.30;;
17171;SDS011;8701;50.150;8.756;2023-02-11T01:35:46;43.03;;;21.30;;
17171;SDS011;8701;50.150;8.756;2023-02-11T01:39:49;41.37;;;21.67;;
17171;SDS011;8701;50.150;8.756;2023-02-11T01:43:51;40.43;;;20.90;;
17171;SDS011;8701;50.150;8.756;2023-02-11T01:47:55;38.00;;;20.60;;
17171;SDS011;8701;50.150;8.756;2023-02-11T01:52:04;39.17;;;21.37;;
17171;SDS011;8701;50.150;8.756;2023-02-11T01:56:10;39.87;;;21.40;;
17171;SDS011;8701;50.150;8.756;2023-02-11T02:00:39;40.37;;;19.87;;
17171;SDS011;8701;50.150;8.756;2023-02-11T02:04:45;36.53;;;20.50;;
17171;SDS011;8701;50.150;8.756;2023-02-11T02:08:54;36.30;;;20.17;;
17171;SDS011;8701;50.150;8.756;2023-02-11T02:13:03;41.50;;;20.40;;
17171;SDS011;8701;50.150;8.756;2023-02-11T02:17:05;36.83;;;20.17;;
17171;SDS011;8701;50.150;8.756;2023-02-11T02:21:28;39.70;;;20.77;;
17171;SDS011;8701;50.150;8.756;2023-02-11T02:26:13;39.93;;;20.80;;
17171;SDS011;8701;50.150;8.756;2023-02-11T02:30:52;40.83;;;20.83;;
17171;SDS011;8701;50.150;8.756;2023-02-11T02:35:18;43.50;;;20.77;;
17171;SDS011;8701;50.150;8.756;2023-02-11T02:39:30;32.33;;;18.60;;
17171;SDS011;8701;50.150;8.756;2023-02-11T02:43:38;39.10;;;19.73;;
17171;SDS011;8701;50.150;8.756;2023-02-11T02:47:43;40.93;;;22.33;;
17171;SDS011;8701;50.150;8.756;2023-02-11T02:51:51;40.93;;;20.47;;
17171;SDS011;8701;50.150;8.756;2023-02-11T02:56:07;36.17;;;21.23;;
17171;SDS011;8701;50.150;8.756;2023-02-11T03:00:18;37.50;;;20.10;;
17171;SDS011;8701;50.150;8.756;2023-02-11T03:04:28;35.87;;;19.53;;
17171;SDS011;8701;50.150;8.756;2023-02-11T03:08:37;34.63;;;19.60;;
17171;SDS011;8701;50.150;8.756;2023-02-11T03:12:44;40.60;;;20.90;;
17171;SDS011;8701;50.150;8.756;2023-02-11T03:16:49;34.87;;;19.57;;
17171;SDS011;8701;50.150;8.756;2023-02-11T03:20:57;43.43;;;20.50;;
17171;SDS011;8701;50.150;8.756;2023-02-11T03:25:03;37.33;;;20.33;;
17171;SDS011;8701;50.150;8.756;2023-02-11T03:29:07;35.23;;;20.60;;
17171;SDS011;8701;50.150;8.756;2023-02-11T03:33:17;38.40;;;21.50;;
17171;SDS011;8701;50.150;8.756;2023-02-11T03:37:26;41.80;;;21.27;;
17171;SDS011;8701;50.150;8.756;2023-02-11T03:41:34;36.97;;;21.70;;
17171;SDS011;8701;50.150;8.756;2023-02-11T03:45:40;39.80;;;21.73;;
17171;SDS011;8701;50.150;8.756;2023-02-11T03:49:44;35.20;;;19.70;;
17171;SDS011;8701;50.150;8.756;2023-02-11T03:54:08;37.57;;;20.40;;
17171;SDS011;8701;50.150;8.756;2023-02-11T03:58:16;38.63;;;21.13;;
17171;SDS011;8701;50.150;8.756;2023-02-11T04:02:18;40.13;;;20.53;;
17171;SDS011;8701;50.150;8.756;2023-02-11T04:06:32;35.57;;;20.53;;
17171;SDS011;8701;50.150;8.756;2023-02-11T04:10:34;39.70;;;21.27;;
17171;SDS011;8701;50.150;8.756;2023-02-11T04:14:42;40.73;;;20.40;;
17171;SDS011;8701;50.150;8.756;2023-02-11T04:18:53;39.80;;;19.63;;
17171;SDS011;8701;50.150;8.756;2023-02-11T04:27:24;37.93;;;20.20;;
17171;SDS011;8701;50.150;8.756;2023-02-11T04:31:28;38.93;;;20.73;;
17171;SDS011;8701;50.150;8.756;2023-02-11T04:35:30;36.67;;;19.77;;
17171;SDS011;8701;50.150;8.756;2023-02-11T04:39:45;34.87;;;18.50;;
17171;SDS011;8701;50.150;8.756;2023-02-11T04:43:47;36.67;;;20.23;;
17171;SDS011;8701;50.150;8.756;2023-02-11T04:47:51;36.43;;;19.47;;
17171;SDS011;8701;50.150;8.756;2023-02-11T04:51:53;30.93;;;18.53;;
17171;SDS011;8701;50.150;8.756;2023-02-11T04:55:56;33.00;;;18.60;;
17171;SDS011;8701;50.150;8.756;2023-02-11T04:59:58;33.90;;;18.50;;
17171;SDS011;8701;50.150;8.756;2023-02-11T05:04:04;37.47;;;19.57;;
17171;SDS011;8701;50.150;8.756;2023-02-11T05:08:07;36.73;;;19.20;;
17171;SDS011;8701;50.150;8.756;2023-02-11T05:12:10;35.93;;;19.20;;
17171;SDS011;8701;50.150;8.756;2023-02-11T05:16:13;38.23;;;19.33;;
17171;SDS011;8701;50.150;8.756;2023-02-11T05:20:17;35.73;;;17.60;;
17171;SDS011;8701;50.150;8.756;2023-02-11T05:24:20;40.97;;;21.17;;
17171;SDS011;8701;50.150;8.756;2023-02-11T05:28:23;34.33;;;18.17;;
17171;SDS011;8701;50.150;8.756;2023-02-11T05:32:26;32.63;;;17.23;;
17171;SDS011;8701;50.150;8.756;2023-02-11T05:36:30;35.43;;;18.67;;
17171;SDS011;8701;50.150;8.756;2023-02-11T05:40:33;35.90;;;19.07;;
17171;SDS011;8701;50.150;8.756;2023-02-11T05:44:37;29.00;;;17.87;;
17171;SDS011;8701;50.150;8.756;2023-02-11T05:48:41;38.37;;;18.07;;
17171;SDS011;8701;50.150;8.756;2023-02-11T05:52:45;30.70;;;17.07;;
17171;SDS011;8701;50.150;8.756;2023-02-11T05:56:48;35.13;;;18.50;;
17171;SDS011;8701;50.150;8.756;2023-02-11T06:00:50;37.10;;;18.17;;
17171;SDS011;8701;50.150;8.756;2023-02-11T06:04:52;36.20;;;18.20;;
17171;SDS011;8701;50.150;8.756;2023-02-11T06:08:56;32.40;;;17.77;;
17171;SDS011;8701;50.150;8.756;2023-02-11T06:12:58;41.10;;;18.10;;
17171;SDS011;8701;50.150;8.756;2023-02-11T06:17:02;33.73;;;17.43;;
17171;SDS011;8701;50.150;8.756;2023-02-11T06:21:05;31.83;;;17.87;;
17171;SDS011;8701;50.150;8.756;2023-02-11T06:25:10;32.87;;;17.93;;
17171;SDS011;8701;50.150;8.756;2023-02-11T06:29:12;33.63;;;17.57;;
17171;SDS011;8701;50.150;8.756;2023-02-11T06:33:15;36.93;;;17.27;;
17171;SDS011;8701;50.150;8.756;2023-02-11T06:37:18;32.67;;;18.60;;
17171;SDS011;8701;50.150;8.756;2023-02-11T06:41:22;32.00;;;17.50;;
17171;SDS011;8701;50.150;8.756;2023-02-11T06:45:25;30.77;;;17.50;;
17171;SDS011;8701;50.150;8.756;2023-02-11T06:49:27;34.83;;;18.23;;
17171;SDS011;8701;50.150;8.756;2023-02-11T06:53:29;30.67;;;18.17;;
17171;SDS011;8701;50.150;8.756;2023-02-11T06:57:33;34.23;;;18.07;;
17171;SDS011;8701;50.150;8.756;2023-02-11T07:01:35;33.03;;;17.13;;
17171;SDS011;8701;50.150;8.756;2023-02-11T07:05:41;32.40;;;17.40;;
17171;SDS011;8701;50.150;8.756;2023-02-11T07:09:43;30.77;;;17.20;;
17171;SDS011;8701;50.150;8.756;2023-02-11T07:13:47;29.10;;;16.90;;
17171;SDS011;8701;50.150;8.756;2023-02-11T07:17:49;40.60;;;19.50;;
17171;SDS011;8701;50.150;8.756;2023-02-11T07:21:51;29.30;;;16.37;;
17171;SDS011;8701;50.150;8.756;2023-02-11T07:25:54;33.33;;;17.53;;
17171;SDS011;8701;50.150;8.756;2023-02-11T07:29:58;27.67;;;16.20;;
17171;SDS011;8701;50.150;8.756;2023-02-11T07:34:00;29.30;;;16.33;;
17171;SDS011;8701;50.150;8.756;2023-02-11T07:38:03;28.87;;;16.90;;
17171;SDS011;8701;50.150;8.756;2023-02-11T07:42:05;30.93;;;16.87;;
17171;SDS011;8701;50.150;8.756;2023-02-11T07:46:16;25.00;;;14.97;;
17171;SDS011;8701;50.150;8.756;2023-02-11T07:50:19;31.23;;;15.10;;
17171;SDS011;8701;50.150;8.756;2023-02-11T07:54:25;25.63;;;15.60;;
17171;SDS011;8701;50.150;8.756;2023-02-11T07:58:27;31.60;;;17.00;;
17171;SDS011;8701;50.150;8.756;2023-02-11T08:02:31;31.13;;;17.97;;
17171;SDS011;8701;50.150;8.756;2023-02-11T08:06:38;28.60;;;17.20;;
17171;SDS011;8701;50.150;8.756;2023-02-11T08:10:44;27.33;;;16.00;;
17171;SDS011;8701;50.150;8.756;2023-02-11T08:14:47;27.17;;;16.27;;
17171;SDS011;8701;50.150;8.756;2023-02-11T08:18:50;31.63;;;16.63;;
17171;SDS011;8701;50.150;8.756;2023-02-11T08:22:55;26.40;;;15.37;;
17171;SDS011;8701;50.150;8.756;2023-02-11T08:27:00;30.03;;;16.80;;
17171;SDS011;8701;50.150;8.756;2023-02-11T08:31:06;33.70;;;17.67;;
17171;SDS011;8701;50.150;8.756;2023-02-11T08:35:10;32.23;;;17.17;;
17171;SDS011;8701;50.150;8.756;2023-02-11T08:39:14;28.80;;;16.23;;
17171;SDS011;8701;50.150;8.756;2023-02-11T08:43:25;28.00;;;16.30;;
17171;SDS011;8701;50.150;8.756;2023-02-11T08:47:27;24.03;;;15.80;;
17171;SDS011;8701;50.150;8.756;2023-02-11T08:51:32;27.93;;;16.40;;
17171;SDS011;8701;50.150;8.756;2023-02-11T08:55:34;26.07;;;15.80;;
17171;SDS011;8701;50.150;8.756;2023-02-11T08:59:38;28.20;;;16.60;;
17171;SDS011;8701;50.150;8.756;2023-02-11T09:03:43;30.43;;;16.80;;
17171;SDS011;8701;50.150;8.756;2023-02-11T09:07:48;32.20;;;17.63;;
17171;SDS011;8701;50.150;8.756;2023-02-11T09:11:52;28.80;;;17.00;;
17171;SDS011;8701;50.150;8.756;2023-02-11T09:20:40;27.90;;;17.00;;
17171;SDS011;8701;50.150;8.756;2023-02-11T09:24:54;45.67;;;18.73;;
17171;SDS011;8701;50.150;8.756;2023-02-11T09:28:56;33.80;;;18.03;;
17171;SDS011;8701;50.150;8.756;2023-02-11T09:33:08;33.07;;;17.27;;
17171;SDS011;8701;50.150;8.756;2023-02-11T09:37:12;28.30;;;16.60;;
17171;SDS011;8701;50.150;8.756;2023-02-11T09:45:41;28.60;;;18.37;;
17171;SDS011;8701;50.150;8.756;2023-02-11T09:49:48;29.37;;;17.37;;
17171;SDS011;8701;50.150;8.756;2023-02-11T09:53:55;30.73;;;16.70;;
17171;SDS011;8701;50.150;8.756;2023-02-11T10:02:17;33.00;;;18.27;;
17171;SDS011;8701;50.150;8.756;2023-02-11T10:06:35;30.70;;;18.67;;
17171;SDS011;8701;50.150;8.756;2023-02-11T10:10:47;27.70;;;17.03;;
17171;SDS011;8701;50.150;8.756;2023-02-11T10:14:58;33.03;;;19.13;;
17171;SDS011;8701;50.150;8.756;2023-02-11T10:19:25;32.97;;;18.90;;
17171;SDS011;8701;50.150;8.756;2023-02-11T10:27:47;30.60;;;18.27;;
17171;SDS011;8701;50.150;8.756;2023-02-11T10:31:53;33.50;;;19.27;;
17171;SDS011;8701;50.150;8.756;2023-02-11T10:35:56;35.57;;;19.13;;
17171;SDS011;8701;50.150;8.756;2023-02-11T10:39:59;33.13;;;19.70;;
17171;SDS011;8701;50.150;8.756;2023-02-11T10:52:50;34.93;;;18.50;;
17171;SDS011;8701;50.150;8.756;2023-02-11T10:56:57;36.30;;;19.60;;
17171;SDS011;8701;50.150;8.756;2023-02-11T11:01:00;33.20;;;18.30;;
17171;SDS011;8701;50.150;8.756;2023-02-11T11:05:14;31.73;;;18.43;;
17171;SDS011;8701;50.150;8.756;2023-02-11T11:09:25;31.57;;;17.70;;
17171;SDS011;8701;50.150;8.756;2023-02-11T11:13:29;27.80;;;16.90;;
17171;SDS011;8701;50.150;8.756;2023-02-11T11:17:33;29.70;;;17.50;;
17171;SDS011;8701;50.150;8.756;2023-02-11T11:21:39;30.67;;;18.03;;
17171;SDS011;8701;50.150;8.756;2023-02-11T11:29:59;32.60;;;17.60;;
17171;SDS011;8701;50.150;8.756;2023-02-11T11:34:11;29.97;;;16.70;;
17171;SDS011;8701;50.150;8.756;2023-02-11T11:38:35;29.43;;;17.50;;
17171;SDS011;8701;50.150;8.756;2023-02-11T11:42:44;29.53;;;17.43;;
17171;SDS011;8701;50.150;8.756;2023-02-11T11:46:50;28.53;;;17.60;;
17171;SDS011;8701;50.150;8.756;2023-02-11T11:51:07;30.53;;;19.27;;
17171;SDS011;8701;50.150;8.756;2023-02-11T11:55:17;30.57;;;17.30;;
17171;SDS011;8701;50.150;8.756;2023-02-11T11:59:23;30.20;;;18.07;;
17171;SDS011;8701;50.150;8.756;2023-02-11T12:03:29;38.40;;;18.67;;
17171;SDS011;8701;50.150;8.756;2023-02-11T12:08:07;27.90;;;16.53;;
17171;SDS011;8701;50.150;8.756;2023-02-11T12:12:28;27.40;;;16.53;;
17171;SDS011;8701;50.150;8.756;2023-02-11T12:16:43;25.20;;;15.83;;
17171;SDS011;8701;50.150;8.756;2023-02-11T12:21:06;28.07;;;16.83;;
17171;SDS011;8701;50.150;8.756;2023-02-11T12:25:24;33.30;;;17.30;;
17171;SDS011;8701;50.150;8.756;2023-02-11T12:29:32;23.20;;;14.37;;
17171;SDS011;8701;50.150;8.756;2023-02-11T12:33:47;30.80;;;16.10;;
17171;SDS011;8701;50.150;8.756;2023-02-11T12:38:11;29.27;;;17.50;;
17171;SDS011;8701;50.150;8.756;2023-02-11T12:47:17;27.33;;;16.60;;
17171;SDS011;8701;50.150;8.756;2023-02-11T12:51:50;30.43;;;16.50;;
17171;SDS011;8701;50.150;8.756;2023-02-11T12:56:02;31.30;;;16.33;;
17171;SDS011;8701;50.150;8.756;2023-02-11T13:00:12;33.77;;;16.53;;
17171;SDS011;8701;50.150;8.756;2023-02-11T13:04:20;25.73;;;15.47;;
17171;SDS011;8701;50.150;8.756;2023-02-11T13:08:28;24.93;;;15.87;;
17171;SDS011;8701;50.150;8.756;2023-02-11T13:12:33;24.40;;;15.10;;
17171;SDS011;8701;50.150;8.756;2023-02-11T13:16:55;28.00;;;15.80;;
17171;SDS011;8701;50.150;8.756;2023-02-11T13:21:00;28.07;;;15.93;;
17171;SDS011;8701;50.150;8.756;2023-02-11T13:25:18;35.17;;;15.30;;
17171;SDS011;8701;50.150;8.756;2023-02-11T13:29:32;29.80;;;15.60;;
17171;SDS011;8701;50.150;8.756;2023-02-11T13:33:45;28.10;;;15.27;;
17171;SDS011;8701;50.150;8.756;2023-02-11T13:37:50;24.67;;;15.40;;
17171;SDS011;8701;50.150;8.756;2023-02-11T13:42:00;23.70;;;15.80;;
17171;SDS011;8701;50.150;8.756;2023-02-11T13:46:04;26.10;;;14.67;;
17171;SDS011;8701;50.150;8.756;2023-02-11T13:50:19;24.70;;;14.30;;
17171;SDS011;8701;50.150;8.756;2023-02-11T13:54:27;27.10;;;14.37;;
17171;SDS011;8701;50.150;8.756;2023-02-11T13:58:33;26.17;;;14.07;;
17171;SDS011;8701;50.150;8.756;2023-02-11T14:02:40;24.67;;;14.30;;
17171;SDS011;8701;50.150;8.756;2023-02-11T14:11:50;24.30;;;13.70;;
17171;SDS011;8701;50.150;8.756;2023-02-11T14:16:07;27.30;;;15.17;;
17171;SDS011;8701;50.150;8.756;2023-02-11T14:24:48;25.87;;;14.60;;
17171;SDS011;8701;50.150;8.756;2023-02-11T14:28:57;23.90;;;13.80;;
17171;SDS011;8701;50.150;8.756;2023-02-11T14:37:46;27.10;;;14.70;;
17171;SDS011;8701;50.150;8.756;2023-02-11T14:41:58;24.07;;;14.20;;
17171;SDS011;8701;50.150;8.756;2023-02-11T14:46:04;18.70;;;12.83;;
17171;SDS011;8701;50.150;8.756;2023-02-11T14:50:10;22.10;;;13.00;;
17171;SDS011;8701;50.150;8.756;2023-02-11T14:54:21;22.93;;;11.63;;
17171;SDS011;8701;50.150;8.756;2023-02-11T14:58:26;21.67;;;13.30;;
17171;SDS011;8701;50.150;8.756;2023-02-11T15:02:33;20.20;;;12.70;;
17171;SDS011;8701;50.150;8.756;2023-02-11T15:06:41;15.33;;;9.30;;
17171;SDS011;8701;50.150;8.756;2023-02-11T15:10:51;19.87;;;11.93;;
17171;SDS011;8701;50.150;8.756;2023-02-11T15:14:58;17.03;;;10.57;;
17171;SDS011;8701;50.150;8.756;2023-02-11T15:19:03;17.70;;;11.03;;
17171;SDS011;8701;50.150;8.756;2023-02-11T15:23:13;17.63;;;10.90;;
17171;SDS011;8701;50.150;8.756;2023-02-11T15:27:23;18.30;;;11.53;;
17171;SDS011;8701;50.150;8.756;2023-02-11T15:31:26;18.50;;;11.77;;
17171;SDS011;8701;50.150;8.756;2023-02-11T15:35:31;19.37;;;12.27;;
17171;SDS011;8701;50.150;8.756;2023-02-11T15:39:36;24.10;;;11.80;;
17171;SDS011;8701;50.150;8.756;2023-02-11T15:43:41;19.40;;;11.00;;
17171;SDS011;8701;50.150;8.756;2023-02-11T15:47:47;19.20;;;12.00;;
17171;SDS011;8701;50.150;8.756;2023-02-11T15:51:52;19.13;;;11.80;;
17171;SDS011;8701;50.150;8.756;2023-02-11T15:56:01;20.47;;;11.40;;
17171;SDS011;8701;50.150;8.756;2023-02-11T16:00:13;22.57;;;12.50;;
17171;SDS011;8701;50.150;8.756;2023-02-11T16:04:18;18.87;;;11.43;;
17171;SDS011;8701;50.150;8.756;2023-02-11T16:08:25;18.00;;;10.77;;
17171;SDS011;8701;50.150;8.756;2023-02-11T16:12:29;18.90;;;12.20;;
17171;SDS011;8701;50.150;8.756;2023-02-11T16:16:32;19.63;;;12.17;;
17171;SDS011;8701;50.150;8.756;2023-02-11T16:20:35;15.90;;;10.90;;
17171;SDS011;8701;50.150;8.756;2023-02-11T16:24:39;16.63;;;10.53;;
17171;SDS011;8701;50.150;8.756;2023-02-11T16:28:41;14.43;;;10.00;;
17171;SDS011;8701;50.150;8.756;2023-02-11T16:32:44;17.80;;;11.20;;
17171;SDS011;8701;50.150;8.756;2023-02-11T16:36:47;18.47;;;11.30;;
17171;SDS011;8701;50.150;8.756;2023-02-11T16:41:03;18.77;;;12.03;;
17171;SDS011;8701;50.150;8.756;2023-02-11T16:45:06;17.00;;;10.83;;
17171;SDS011;8701;50.150;8.756;2023-02-11T16:49:10;18.90;;;10.80;;
17171;SDS011;8701;50.150;8.756;2023-02-11T16:53:20;17.63;;;10.43;;
17171;SDS011;8701;50.150;8.756;2023-02-11T16:57:25;17.37;;;11.40;;
17171;SDS011;8701;50.150;8.756;2023-02-11T17:01:27;15.90;;;11.13;;
17171;SDS011;8701;50.150;8.756;2023-02-11T17:05:31;15.53;;;10.17;;
17171;SDS011;8701;50.150;8.756;2023-02-11T17:09:35;16.03;;;11.17;;
17171;SDS011;8701;50.150;8.756;2023-02-11T17:13:39;14.20;;;10.20;;
17171;SDS011;8701;50.150;8.756;2023-02-11T17:17:43;13.17;;;9.90;;
17171;SDS011;8701;50.150;8.756;2023-02-11T17:21:47;18.40;;;11.70;;
17171;SDS011;8701;50.150;8.756;2023-02-11T17:25:56;15.83;;;11.13;;
17171;SDS011;8701;50.150;8.756;2023-02-11T17:29:59;16.63;;;11.40;;
17171;SDS011;8701;50.150;8.756;2023-02-11T17:34:06;22.00;;;11.77;;
17171;SDS011;8701;50.150;8.756;2023-02-11T17:38:09;22.80;;;12.57;;
17171;SDS011;8701;50.150;8.756;2023-02-11T17:42:11;20.73;;;13.03;;
17171;SDS011;8701;50.150;8.756;2023-02-11T17:46:18;22.80;;;13.60;;
17171;SDS011;8701;50.150;8.756;2023-02-11T17:50:25;29.33;;;15.63;;
17171;SDS011;8701;50.150;8.756;2023-02-11T17:54:30;25.43;;;14.30;;
17171;SDS011;8701;50.150;8.756;2023-02-11T17:58:32;23.47;;;14.00;;
17171;SDS011;8701;50.150;8.756;2023-02-11T18:02:35;21.30;;;13.63;;
17171;SDS011;8701;50.150;8.756;2023-02-11T18:06:41;25.33;;;14.80;;
17171;SDS011;8701;50.150;8.756;2023-02-11T18:10:43;24.70;;;15.27;;
17171;SDS011;8701;50.150;8.756;2023-02-11T18:14:47;29.07;;;16.07;;
17171;SDS011;8701;50.150;8.756;2023-02-11T18:18:55;24.17;;;15.20;;
17171;SDS011;8701;50.150;8.756;2023-02-11T18:23:00;29.83;;;15.93;;
17171;SDS011;8701;50.150;8.756;2023-02-11T18:27:02;23.77;;;14.47;;
17171;SDS011;8701;50.150;8.756;2023-02-11T18:31:05;27.23;;;16.10;;
17171;SDS011;8701;50.150;8.756;2023-02-11T18:35:09;23.77;;;14.33;;
17171;SDS011;8701;50.150;8.756;2023-02-11T18:39:14;24.57;;;15.20;;
17171;SDS011;8701;50.150;8.756;2023-02-11T18:43:17;24.23;;;14.70;;
17171;SDS011;8701;50.150;8.756;2023-02-11T18:47:19;28.80;;;14.70;;
17171;SDS011;8701;50.150;8.756;2023-02-11T18:51:23;24.40;;;14.37;;
17171;SDS011;8701;50.150;8.756;2023-02-11T18:55:25;24.40;;;15.47;;
17171;SDS011;8701;50.150;8.756;2023-02-11T18:59:28;26.27;;;16.37;;
17171;SDS011;8701;50.150;8.756;2023-02-11T19:03:30;27.47;;;16.80;;
17171;SDS011;8701;50.150;8.756;2023-02-11T19:07:34;34.13;;;16.67;;
17171;SDS011;8701;50.150;8.756;2023-02-11T19:11:37;25.07;;;15.17;;
17171;SDS011;8701;50.150;8.756;2023-02-11T19:15:50;28.63;;;16.00;;
17171;SDS011;8701;50.150;8.756;2023-02-11T19:19:53;24.97;;;16.07;;
17171;SDS011;8701;50.150;8.756;2023-02-11T19:23:56;23.00;;;14.83;;
17171;SDS011;8701;50.150;8.756;2023-02-11T19:27:59;28.17;;;16.20;;
17171;SDS011;8701;50.150;8.756;2023-02-11T19:32:03;25.73;;;15.67;;
17171;SDS011;8701;50.150;8.756;2023-02-11T19:36:06;25.47;;;14.83;;
17171;SDS011;8701;50.150;8.756;2023-02-11T19:40:11;25.37;;;15.77;;
17171;SDS011;8701;50.150;8.756;2023-02-11T19:44:15;30.50;;;15.83;;
17171;SDS011;8701;50.150;8.756;2023-02-11T19:48:17;28.03;;;16.90;;
17171;SDS011;8701;50.150;8.756;2023-02-11T19:52:19;30.80;;;16.00;;
17171;SDS011;8701;50.150;8.756;2023-02-11T19:56:23;32.33;;;19.10;;
17171;SDS011;8701;50.150;8.756;2023-02-11T20:00:26;26.37;;;16.50;;
17171;SDS011;8701;50.150;8.756;2023-02-11T20:04:29;29.77;;;16.33;;
17171;SDS011;8701;50.150;8.756;2023-02-11T20:08:31;30.13;;;16.07;;
17171;SDS011;8701;50.150;8.756;2023-02-11T20:12:36;22.83;;;15.30;;
17171;SDS011;8701;50.150;8.756;2023-02-11T20:16:42;25.13;;;16.57;;
17171;SDS011;8701;50.150;8.756;2023-02-11T20:20:46;28.87;;;16.00;;
17171;SDS011;8701;50.150;8.756;2023-02-11T20:24:49;30.00;;;18.30;;
17171;SDS011;8701;50.150;8.756;2023-02-11T20:28:53;28.20;;;16.90;;
17171;SDS011;8701;50.150;8.756;2023-02-11T20:32:58;33.33;;;17.50;;
17171;SDS011;8701;50.150;8.756;2023-02-11T20:37:01;30.60;;;18.50;;
17171;SDS011;8701;50.150;8.756;2023-02-11T20:41:04;29.60;;;17.73;;
17171;SDS011;8701;50.150;8.756;2023-02-11T20:45:09;30.60;;;16.70;;
17171;SDS011;8701;50.150;8.756;2023-02-11T20:49:11;27.87;;;15.77;;
17171;SDS011;8701;50.150;8.756;2023-02-11T20:53:14;25.03;;;15.57;;
17171;SDS011;8701;50.150;8.756;2023-02-11T20:57:17;27.03;;;15.40;;
17171;SDS011;8701;50.150;8.756;2023-02-11T21:01:21;27.57;;;16.50;;
17171;SDS011;8701;50.150;8.756;2023-02-11T21:05:24;32.43;;;18.73;;
17171;SDS011;8701;50.150;8.756;2023-02-11T21:09:30;29.80;;;16.40;;
17171;SDS011;8701;50.150;8.756;2023-02-11T21:13:33;28.97;;;17.10;;
17171;SDS011;8701;50.150;8.756;2023-02-11T21:17:37;25.93;;;15.50;;
17171;SDS011;8701;50.150;8.756;2023-02-11T21:21:39;31.17;;;17.10;;
17171;SDS011;8701;50.150;8.756;2023-02-11T21:25:42;32.37;;;18.20;;
17171;SDS011;8701;50.150;8.756;2023-02-11T21:29:44;33.47;;;18.23;;
17171;SDS011;8701;50.150;8.756;2023-02-11T21:33:48;30.70;;;16.53;;
17171;SDS011;8701;50.150;8.756;2023-02-11T21:37:53;24.90;;;14.30;;
17171;SDS011;8701;50.150;8.756;2023-02-11T21:41:55;27.70;;;16.03;;
17171;SDS011;8701;50.150;8.756;2023-02-11T21:45:58;26.03;;;15.50;;
17171;SDS011;8701;50.150;8.756;2023-02-11T21:50:01;30.77;;;15.90;;
17171;SDS011;8701;50.150;8.756;2023-02-11T21:54:04;29.10;;;16.00;;
17171;SDS011;8701;50.150;8.756;2023-02-11T21:58:07;30.37;;;18.07;;
17171;SDS011;8701;50.150;8.756;2023-02-11T22:07:30;24.97;;;14.70;;
17171;SDS011;8701;50.150;8.756;2023-02-11T22:11:36;25.53;;;14.63;;
17171;SDS011;8701;50.150;8.756;2023-02-11T22:15:43;25.10;;;15.60;;
17171;SDS011;8701;50.150;8.756;2023-02-11T22:19:46;24.67;;;15.27;;
17171;SDS011;8701;50.150;8.756;2023-02-11T22:23:50;29.50;;;16.33;;
17171;SDS011;8701;50.150;8.756;2023-02-11T22:27:52;26.23;;;14.17;;
17171;SDS011;8701;50.150;8.756;2023-02-11T22:31:54;26.30;;;15.53;;
17171;SDS011;8701;50.150;8.756;2023-02-11T22:35:59;32.27;;;15.57;;
17171;SDS011;8701;50.150;8.756;2023-02-11T22:40:04;28.27;;;16.83;;
17171;SDS011;8701;50.150;8.756;2023-02-11T22:44:07;27.83;;;15.83;;
17171;SDS011;8701;50.150;8.756;2023-02-11T22:48:10;29.63;;;16.73;;
17171;SDS011;8701;50.150;8.756;2023-02-11T22:52:12;34.67;;;18.80;;
17171;SDS011;8701;50.150;8.756;2023-02-11T22:56:22;31.23;;;18.00;;
17171;SDS011;8701;50.150;8.756;2023-02-11T23:00:29;30.30;;;16.60;;
17171;SDS011;8701;50.150;8.756;2023-02-11T23:04:37;27.90;;;15.23;;
17171;SDS011;8701;50.150;8.756;2023-02-11T23:08:40;24.70;;;15.10;;
17171;SDS011;8701;50.150;8.756;2023-02-11T23:12:46;22.93;;;14.47;;
17171;SDS011;8701;50.150;8.756;2023-02-11T23:16:49;23.90;;;14.03;;
17171;SDS011;8701;50.150;8.756;2023-02-11T23:20:52;26.90;;;14.60;;
17171;SDS011;8701;50.150;8.756;2023-02-11T23:24:55;22.50;;;14.00;;
17171;SDS011;8701;50.150;8.756;2023-02-11T23:28:59;23.17;;;15.40;;
17171;SDS011;8701;50.150;8.756;2023-02-11T23:33:01;27.67;;;15.10;;
17171;SDS011;8701;50.150;8.756;2023-02-11T23:37:03;23.80;;;14.13;;
17171;SDS011;8701;50.150;8.756;2023-02-11T23:41:06;23.13;;;14.33;;
17171;SDS011;8701;50.150;8.756;2023-02-11T23:45:10;25.80;;;15.10;;
17171;SDS011;8701;50.150;8.756;2023-02-11T23:49:12;22.27;;;14.27;;
17171;SDS011;8701;50.150;8.756;2023-02-11T23:53:15;29.90;;;14.83;;
17171;SDS011;8701;50.150;8.756;2023-02-11T23:57:17;29.30;;;15.60;;
